createdAt,value
2022-09-27T00:00:06.893Z,9.49
2022-09-27T00:02:33.323Z,9.42
2022-09-27T00:04:59.755Z,9.35
2022-09-27T00:07:26.159Z,9.10
2022-09-27T00:09:52.541Z,9.14
2022-09-27T00:12:18.932Z,9.26
2022-09-27T00:14:45.332Z,9.07
2022-09-27T00:17:11.721Z,9.06
2022-09-27T00:19:38.123Z,8.85
2022-09-27T00:22:04.589Z,8.96
2022-09-27T00:24:31.710Z,9.01
2022-09-27T00:26:58.134Z,9.04
2022-09-27T00:29:24.664Z,9.04
2022-09-27T00:31:51.170Z,9.31
2022-09-27T00:34:22.988Z,9.08
2022-09-27T00:36:50.225Z,9.01
2022-09-27T00:39:17.023Z,8.58
2022-09-27T00:41:44.760Z,8.72
2022-09-27T00:44:29.462Z,8.88
2022-09-27T00:47:22.478Z,9.02
2022-09-27T00:49:57.764Z,9.11
2022-09-27T00:52:31.939Z,8.86
2022-09-27T00:55:06.773Z,8.96
2022-09-27T00:57:33.488Z,8.87
2022-09-27T01:00:04.655Z,9.20
2022-09-27T01:02:31.674Z,8.78
2022-09-27T01:04:58.201Z,8.82
2022-09-27T01:07:24.597Z,8.77
2022-09-27T01:09:51.017Z,8.65
2022-09-27T01:12:42.421Z,8.96
2022-09-27T01:15:37.237Z,9.14
2022-09-27T01:18:13.041Z,8.92
2022-09-27T01:21:10.459Z,9.05
2022-09-27T01:24:03.890Z,8.68
2022-09-27T01:26:54.582Z,8.94
2022-09-27T01:30:10.911Z,8.99
2022-09-27T01:32:46.364Z,8.37
2022-09-27T01:35:21.752Z,8.63
2022-09-27T01:37:57.527Z,8.67
2022-09-27T01:40:40.234Z,8.61
2022-09-27T01:43:15.389Z,8.35
2022-09-27T01:45:59.498Z,8.28
2022-09-27T01:48:32.285Z,8.35
2022-09-27T01:51:14.415Z,8.21
2022-09-27T01:53:44.836Z,8.34
2022-09-27T01:56:18.272Z,8.46
2022-09-27T01:58:56.839Z,8.58
2022-09-27T02:01:27.373Z,8.52
2022-09-27T02:03:55.013Z,8.41
2022-09-27T02:06:27.599Z,7.91
2022-09-27T02:08:58.066Z,8.28
2022-09-27T02:11:24.645Z,8.20
2022-09-27T02:14:19.593Z,8.54
2022-09-27T02:16:56.434Z,8.68
2022-09-27T02:19:49.127Z,8.54
2022-09-27T02:22:38.949Z,8.42
2022-09-27T02:25:11.547Z,8.29
2022-09-27T02:27:41.027Z,8.13
2022-09-27T02:30:11.890Z,8.23
2022-09-27T02:32:39.154Z,8.16
2022-09-27T02:35:30.778Z,8.19
2022-09-27T02:37:57.698Z,7.98
2022-09-27T02:40:29.598Z,8.26
2022-09-27T02:42:57.209Z,8.20
2022-09-27T02:45:30.008Z,8.41
2022-09-27T02:48:13.247Z,8.19
2022-09-27T02:50:57.689Z,8.41
2022-09-27T02:53:27.086Z,8.48
2022-09-27T02:56:30.597Z,8.58
2022-09-27T02:59:42.851Z,8.65
2022-09-27T03:02:33.383Z,8.59
2022-09-27T03:05:04.767Z,8.46
2022-09-27T03:07:31.652Z,8.29
2022-09-27T03:09:58.250Z,8.40
2022-09-27T03:12:27.537Z,8.21
2022-09-27T03:14:59.109Z,8.28
2022-09-27T03:17:26.039Z,8.17
2022-09-27T03:19:52.877Z,8.72
2022-09-27T03:22:19.381Z,8.14
2022-09-27T03:24:45.804Z,8.15
2022-09-27T03:27:12.374Z,8.01
2022-09-27T03:29:38.732Z,7.96
2022-09-27T03:32:05.170Z,7.91
2022-09-27T03:34:31.615Z,7.91
2022-09-27T03:36:59.197Z,8.15
2022-09-27T03:39:25.583Z,8.06
2022-09-27T03:41:52.014Z,7.84
2022-09-27T03:44:18.523Z,7.97
2022-09-27T03:46:45.033Z,7.86
2022-09-27T03:49:11.455Z,7.73
2022-09-27T03:51:37.838Z,7.64
2022-09-27T03:54:04.399Z,7.67
2022-09-27T03:56:30.818Z,7.49
2022-09-27T03:58:57.207Z,7.20
2022-09-27T04:01:23.665Z,7.47
2022-09-27T04:03:50.073Z,7.33
2022-09-27T04:06:17.870Z,7.06
2022-09-27T04:08:44.674Z,7.15
2022-09-27T04:11:11.044Z,7.15
2022-09-27T04:13:37.726Z,7.06
2022-09-27T04:16:04.234Z,7.18
2022-09-27T04:18:49.822Z,7.30
2022-09-27T04:21:16.345Z,7.20
2022-09-27T04:23:42.695Z,7.09
2022-09-27T04:26:09.425Z,7.14
2022-09-27T04:28:35.961Z,7.23
2022-09-27T04:31:10.585Z,7.29
2022-09-27T04:33:37.038Z,7.28
2022-09-27T04:36:21.978Z,7.34
2022-09-27T04:38:48.847Z,7.47
2022-09-27T04:41:15.415Z,7.52
2022-09-27T04:43:58.870Z,7.55
2022-09-27T04:46:26.429Z,7.29
2022-09-27T04:48:52.993Z,7.46
2022-09-27T04:51:20.040Z,7.18
2022-09-27T04:53:47.347Z,7.29
2022-09-27T04:56:14.713Z,7.33
2022-09-27T04:58:41.318Z,7.51
2022-09-27T05:01:09.292Z,7.56
2022-09-27T05:03:35.808Z,6.99
2022-09-27T05:06:03.128Z,7.43
2022-09-27T05:08:29.759Z,7.20
2022-09-27T05:10:56.229Z,7.33
2022-09-27T05:13:22.770Z,7.19
2022-09-27T05:15:49.674Z,7.29
2022-09-27T05:18:17.965Z,7.25
2022-09-27T05:20:45.041Z,7.12
2022-09-27T05:23:11.513Z,7.04
2022-09-27T05:25:37.931Z,7.07
2022-09-27T05:28:05.162Z,7.15
2022-09-27T05:30:31.675Z,7.11
2022-09-27T05:32:58.178Z,6.93
2022-09-27T05:35:24.626Z,7.01
2022-09-27T05:37:58.475Z,7.01
2022-09-27T05:40:42.076Z,7.31
2022-09-27T05:43:08.827Z,7.06
2022-09-27T05:45:35.169Z,7.02
2022-09-27T05:48:01.965Z,7.04
2022-09-27T05:50:28.825Z,6.96
2022-09-27T05:52:55.303Z,7.11
2022-09-27T05:55:22.133Z,7.26
2022-09-27T05:58:06.957Z,7.43
2022-09-27T06:00:35.218Z,7.38
2022-09-27T06:03:04.327Z,7.23
2022-09-27T06:05:35.837Z,7.25
2022-09-27T06:08:05.031Z,7.20
2022-09-27T06:10:32.726Z,6.93
2022-09-27T06:13:02.389Z,7.02
2022-09-27T06:15:29.926Z,7.04
2022-09-27T06:17:56.307Z,7.06
2022-09-27T06:20:23.481Z,6.77
2022-09-27T06:22:49.865Z,7.00
2022-09-27T06:25:16.395Z,6.78
2022-09-27T06:27:42.753Z,6.85
2022-09-27T06:30:09.877Z,6.81
2022-09-27T06:32:36.619Z,6.78
2022-09-27T06:35:05.211Z,6.86
2022-09-27T06:37:31.588Z,6.76
2022-09-27T06:39:57.959Z,6.82
2022-09-27T06:42:27.616Z,6.74
2022-09-27T06:44:54.282Z,6.82
2022-09-27T06:47:23.206Z,6.81
2022-09-27T06:49:49.606Z,6.86
2022-09-27T06:52:15.976Z,6.44
2022-09-27T06:54:42.319Z,6.88
2022-09-27T06:57:08.674Z,6.86
2022-09-27T06:59:53.687Z,6.79
2022-09-27T07:02:20.185Z,6.86
2022-09-27T07:04:46.600Z,6.82
2022-09-27T07:07:13.826Z,6.97
2022-09-27T07:09:41.059Z,7.06
2022-09-27T07:12:07.469Z,7.01
2022-09-27T07:14:34.677Z,6.99
2022-09-27T07:17:01.062Z,7.12
2022-09-27T07:19:27.503Z,6.97
2022-09-27T07:21:53.865Z,6.82
2022-09-27T07:24:20.221Z,6.96
2022-09-27T07:26:48.226Z,7.01
2022-09-27T07:29:14.820Z,6.70
2022-09-27T07:31:42.652Z,6.63
2022-09-27T07:34:09.126Z,6.77
2022-09-27T07:36:35.504Z,6.99
2022-09-27T07:39:01.892Z,6.92
2022-09-27T07:41:28.266Z,6.90
2022-09-27T07:43:54.783Z,6.88
2022-09-27T07:46:21.317Z,6.99
2022-09-27T07:48:48.856Z,6.79
2022-09-27T07:51:15.218Z,6.97
2022-09-27T07:53:41.613Z,7.11
2022-09-27T07:56:08.032Z,7.02
2022-09-27T07:58:34.381Z,7.07
2022-09-27T08:01:02.482Z,7.33
2022-09-27T08:03:29.034Z,7.14
2022-09-27T08:05:55.445Z,7.06
2022-09-27T08:08:21.883Z,7.26
2022-09-27T08:10:49.314Z,7.12
2022-09-27T08:13:20.050Z,7.14
2022-09-27T08:15:47.011Z,7.03
2022-09-27T08:18:13.381Z,7.29
2022-09-27T08:20:40.147Z,7.28
2022-09-27T08:23:06.689Z,7.11
2022-09-27T08:25:33.045Z,7.43
2022-09-27T08:28:01.920Z,7.29
2022-09-27T08:30:31.326Z,7.40
2022-09-27T08:32:59.676Z,7.26
2022-09-27T08:35:27.947Z,6.98
2022-09-27T08:37:59.817Z,6.80
2022-09-27T08:40:38.283Z,6.30
2022-09-27T08:43:18.065Z,6.52
2022-09-27T08:45:58.118Z,6.58
2022-09-27T08:48:27.195Z,6.45
2022-09-27T08:50:54.709Z,6.31
2022-09-27T08:53:26.301Z,6.09
2022-09-27T08:55:55.619Z,5.91
2022-09-27T08:58:31.323Z,5.97
2022-09-27T09:01:06.446Z,5.74
2022-09-27T09:03:39.859Z,5.59
2022-09-27T09:06:27.055Z,5.81
2022-09-27T09:09:08.458Z,5.76
2022-09-27T09:11:59.607Z,5.84
2022-09-27T09:14:51.794Z,5.47
2022-09-27T09:17:42.406Z,5.49
2022-09-27T09:20:25.711Z,5.43
2022-09-27T09:23:19.743Z,5.55
2022-09-27T09:26:00.134Z,5.39
2022-09-27T09:29:08.041Z,5.33
2022-09-27T09:31:37.401Z,5.58
2022-09-27T09:34:15.621Z,5.32
2022-09-27T09:36:47.842Z,5.28
2022-09-27T09:39:24.139Z,5.34
2022-09-27T09:42:14.723Z,5.56
2022-09-27T09:45:03.539Z,5.73
2022-09-27T09:47:36.940Z,5.82
2022-09-27T09:50:13.158Z,5.76
2022-09-27T09:52:57.608Z,6.29
2022-09-27T09:55:28.615Z,6.39
2022-09-27T09:58:20.232Z,6.22
2022-09-27T10:00:49.298Z,6.60
2022-09-27T10:03:15.734Z,6.49
2022-09-27T10:05:45.150Z,6.50
2022-09-27T10:08:20.254Z,6.94
2022-09-27T10:10:46.870Z,7.31
2022-09-27T10:13:17.757Z,7.40
2022-09-27T10:15:53.576Z,7.48
2022-09-27T10:18:20.666Z,7.21
2022-09-27T10:20:55.718Z,6.95
2022-09-27T10:23:25.128Z,7.11
2022-09-27T10:25:54.981Z,6.97
2022-09-27T10:28:42.057Z,6.36
2022-09-27T10:31:12.160Z,6.58
2022-09-27T10:33:51.854Z,6.31
2022-09-27T10:36:29.147Z,6.27
2022-09-27T10:39:06.992Z,6.47
2022-09-27T10:41:34.979Z,6.40
2022-09-27T10:44:17.143Z,6.85
2022-09-27T10:46:51.281Z,7.00
2022-09-27T10:49:23.839Z,7.37
2022-09-27T10:51:54.719Z,6.95
2022-09-27T10:54:27.414Z,6.92
2022-09-27T10:56:56.942Z,6.75
2022-09-27T10:59:24.090Z,7.10
2022-09-27T11:01:50.969Z,7.42
2022-09-27T11:04:37.708Z,7.47
2022-09-27T11:07:18.448Z,7.44
2022-09-27T11:09:54.676Z,7.30
2022-09-27T11:12:22.986Z,7.37
2022-09-27T11:14:56.221Z,7.60
2022-09-27T11:17:46.489Z,8.00
2022-09-27T11:20:42.423Z,7.87
2022-09-27T11:23:32.234Z,7.95
2022-09-27T11:26:22.658Z,8.00
2022-09-27T11:28:57.452Z,8.23
2022-09-27T11:31:50.927Z,8.48
2022-09-27T11:34:28.021Z,8.34
2022-09-27T11:37:17.709Z,8.10
2022-09-27T11:40:06.439Z,8.51
2022-09-27T11:42:53.680Z,7.99
2022-09-27T11:45:50.577Z,8.33
2022-09-27T11:48:45.597Z,8.42
2022-09-27T11:51:47.605Z,8.38
2022-09-27T11:54:32.343Z,8.37
2022-09-27T11:57:18.943Z,8.20
2022-09-27T12:00:06.113Z,8.05
2022-09-27T12:02:55.394Z,8.22
2022-09-27T12:05:57.243Z,7.84
2022-09-27T12:08:42.928Z,7.69
2022-09-27T12:11:20.338Z,7.53
2022-09-27T12:13:59.227Z,7.63
2022-09-27T12:16:26.904Z,7.58
2022-09-27T12:18:55.469Z,7.17
2022-09-27T12:21:23.074Z,7.42
2022-09-27T12:23:53.185Z,7.83
2022-09-27T12:26:27.888Z,7.37
2022-09-27T12:29:14.283Z,7.45
2022-09-27T12:31:52.888Z,7.02
2022-09-27T12:34:50.357Z,6.43
2022-09-27T12:37:26.026Z,6.28
2022-09-27T12:39:59.866Z,6.23
2022-09-27T12:42:34.361Z,6.02
2022-09-27T12:45:00.784Z,5.81
2022-09-27T12:47:59.807Z,5.99
2022-09-27T12:50:58.513Z,5.72
2022-09-27T12:53:31.179Z,5.52
2022-09-27T12:56:57.333Z,5.62
2022-09-27T12:59:34.187Z,5.75
2022-09-27T13:02:22.093Z,6.08
2022-09-27T13:05:13.920Z,6.62
2022-09-27T13:08:02.151Z,6.97
2022-09-27T13:10:52.833Z,7.21
2022-09-27T13:13:23.262Z,7.45
2022-09-27T13:15:50.201Z,7.13
2022-09-27T13:18:53.889Z,6.96
2022-09-27T13:21:51.546Z,7.46
2022-09-27T13:24:48.365Z,7.78
2022-09-27T13:27:23.643Z,7.88
2022-09-27T13:29:51.352Z,7.93
2022-09-27T13:32:22.910Z,7.98
2022-09-27T13:34:51.863Z,8.17
2022-09-27T13:37:47.373Z,8.20
2022-09-27T13:40:15.801Z,7.97
2022-09-27T13:43:03.379Z,7.88
2022-09-27T13:45:55.194Z,8.03
2022-09-27T13:48:32.882Z,8.11
2022-09-27T13:51:04.417Z,8.10
2022-09-27T13:53:38.048Z,8.02
2022-09-27T13:56:28.403Z,7.98
2022-09-27T13:58:59.459Z,8.28
2022-09-27T14:01:31.590Z,8.35
2022-09-27T14:04:10.558Z,8.15
2022-09-27T14:06:44.530Z,7.88
2022-09-27T14:09:21.104Z,7.99
2022-09-27T14:11:54.979Z,7.70
2022-09-27T14:14:30.385Z,7.97
2022-09-27T14:17:10.051Z,7.62
2022-09-27T14:19:45.786Z,8.01
2022-09-27T14:22:17.825Z,7.49
2022-09-27T14:24:59.062Z,7.42
2022-09-27T14:27:30.506Z,7.43
2022-09-27T14:30:28.014Z,7.42
2022-09-27T14:32:55.400Z,7.19
2022-09-27T14:35:45.202Z,7.17
2022-09-27T14:38:38.101Z,7.50
2022-09-27T14:41:08.080Z,7.90
2022-09-27T14:43:36.672Z,7.91
2022-09-27T14:46:06.940Z,7.57
2022-09-27T14:48:36.379Z,7.87
2022-09-27T14:51:14.640Z,7.66
2022-09-27T14:53:58.260Z,7.87
2022-09-27T14:56:32.104Z,7.43
2022-09-27T14:59:02.961Z,7.44
2022-09-27T15:01:30.350Z,7.66
2022-09-27T15:04:13.115Z,7.74
2022-09-27T15:06:39.921Z,7.35
2022-09-27T15:09:18.320Z,7.54
2022-09-27T15:11:52.789Z,7.70
2022-09-27T15:14:23.497Z,7.61
2022-09-27T15:16:52.448Z,8.07
2022-09-27T15:19:27.932Z,8.06
2022-09-27T15:21:55.506Z,7.69
2022-09-27T15:24:45.526Z,8.16
2022-09-27T15:27:24.582Z,8.03
2022-09-27T15:29:54.722Z,7.74
2022-09-27T15:32:27.044Z,7.73
2022-09-27T15:34:56.645Z,7.70
2022-09-27T15:37:38.108Z,7.66
2022-09-27T15:40:16.659Z,7.52
2022-09-27T15:43:05.804Z,7.60
2022-09-27T15:45:36.034Z,7.50
2022-09-27T15:48:12.994Z,7.07
2022-09-27T15:50:40.900Z,7.47
2022-09-27T15:53:09.404Z,7.75
2022-09-27T15:55:49.280Z,7.91
2022-09-27T15:58:20.204Z,7.53
2022-09-27T16:00:55.722Z,7.34
2022-09-27T16:03:24.304Z,7.24
2022-09-27T16:05:56.037Z,7.09
2022-09-27T16:08:26.904Z,7.52
2022-09-27T16:10:56.066Z,7.52
2022-09-27T16:13:25.289Z,7.27
2022-09-27T16:15:53.368Z,7.24
2022-09-27T16:18:20.854Z,7.22
2022-09-27T16:20:48.309Z,7.27
2022-09-27T16:23:17.844Z,7.44
2022-09-27T16:25:44.225Z,7.21
2022-09-27T16:28:11.467Z,6.99
2022-09-27T16:30:37.878Z,7.08
2022-09-27T16:33:04.467Z,7.18
2022-09-27T16:35:30.864Z,6.95
2022-09-27T16:37:58.382Z,6.79
2022-09-27T16:40:26.645Z,6.94
2022-09-27T16:42:53.224Z,6.80
2022-09-27T16:45:19.961Z,6.63
2022-09-27T16:47:46.760Z,6.55
2022-09-27T16:50:33.477Z,6.59
2022-09-27T16:53:00.505Z,6.72
2022-09-27T16:55:28.751Z,6.89
2022-09-27T16:57:58.712Z,6.80
2022-09-27T17:00:25.630Z,6.96
2022-09-27T17:02:54.577Z,6.95
2022-09-27T17:05:22.726Z,6.76
2022-09-27T17:07:53.079Z,6.80
2022-09-27T17:10:21.154Z,6.82
2022-09-27T17:12:48.140Z,6.68
2022-09-27T17:15:15.820Z,6.64
2022-09-27T17:17:42.377Z,6.33
2022-09-27T17:20:11.965Z,6.53
2022-09-27T17:22:38.501Z,6.51
2022-09-27T17:25:05.235Z,6.42
2022-09-27T17:27:31.638Z,6.54
2022-09-27T17:29:58.061Z,6.22
2022-09-27T17:32:24.606Z,6.23
2022-09-27T17:34:52.033Z,6.59
2022-09-27T17:37:18.561Z,6.44
2022-09-27T17:39:44.990Z,6.39
2022-09-27T17:42:11.838Z,6.26
2022-09-27T17:44:38.297Z,6.18
2022-09-27T17:47:23.336Z,6.16
2022-09-27T17:50:08.853Z,6.03
2022-09-27T17:52:35.306Z,6.04
2022-09-27T17:55:01.857Z,6.16
2022-09-27T17:57:28.417Z,6.01
2022-09-27T17:59:54.814Z,6.10
2022-09-27T18:02:21.472Z,6.12
2022-09-27T18:04:47.913Z,6.04
2022-09-27T18:07:14.384Z,5.98
2022-09-27T18:09:47.899Z,6.04
2022-09-27T18:12:14.621Z,6.29
2022-09-27T18:14:41.053Z,6.20
2022-09-27T18:17:07.437Z,6.09
2022-09-27T18:19:33.824Z,6.22
2022-09-27T18:22:00.796Z,6.15
2022-09-27T18:24:27.417Z,6.15
2022-09-27T18:26:55.700Z,6.14
2022-09-27T18:29:22.661Z,6.05
2022-09-27T18:31:49.398Z,6.20
2022-09-27T18:34:17.744Z,6.16
2022-09-27T18:36:44.747Z,6.33
2022-09-27T18:39:15.640Z,6.14
2022-09-27T18:41:42.146Z,6.34
2022-09-27T18:44:14.551Z,6.49
2022-09-27T18:46:41.534Z,6.49
2022-09-27T18:49:10.644Z,6.45
2022-09-27T18:51:44.610Z,6.51
2022-09-27T18:54:20.195Z,6.48
2022-09-27T18:56:48.543Z,6.47
2022-09-27T18:59:15.653Z,6.57
2022-09-27T19:01:45.183Z,6.45
2022-09-27T19:04:15.115Z,6.59
2022-09-27T19:06:41.969Z,6.37
2022-09-27T19:09:11.332Z,6.57
2022-09-27T19:11:38.148Z,6.52
2022-09-27T19:14:04.615Z,6.33
2022-09-27T19:16:31.204Z,6.29
2022-09-27T19:18:58.927Z,6.15
2022-09-27T19:21:28.180Z,6.23
2022-09-27T19:23:59.798Z,6.23
2022-09-27T19:26:35.289Z,6.11
2022-09-27T19:29:06.775Z,6.25
2022-09-27T19:31:33.832Z,6.27
2022-09-27T19:34:00.846Z,6.18
2022-09-27T19:36:28.481Z,6.30
2022-09-27T19:38:58.207Z,6.33
2022-09-27T19:41:29.324Z,6.28
2022-09-27T19:43:57.637Z,6.38
2022-09-27T19:46:25.416Z,6.52
2022-09-27T19:48:53.046Z,6.41
2022-09-27T19:51:24.911Z,6.32
2022-09-27T19:53:52.409Z,6.52
2022-09-27T19:56:19.649Z,6.31
2022-09-27T19:58:46.510Z,6.48
2022-09-27T20:01:14.486Z,6.38
2022-09-27T20:03:44.761Z,6.53
2022-09-27T20:06:13.401Z,6.51
2022-09-27T20:08:45.196Z,6.66
2022-09-27T20:11:13.735Z,6.43
2022-09-27T20:13:40.830Z,6.46
2022-09-27T20:16:10.396Z,6.56
2022-09-27T20:18:42.374Z,6.48
2022-09-27T20:21:09.171Z,6.69
2022-09-27T20:23:36.453Z,6.50
2022-09-27T20:26:11.375Z,6.61
2022-09-27T20:28:43.143Z,6.60
2022-09-27T20:31:11.929Z,6.77
2022-09-27T20:33:41.133Z,6.64
2022-09-27T20:36:29.274Z,6.78
2022-09-27T20:39:02.335Z,6.78
2022-09-27T20:41:38.531Z,6.80
2022-09-27T20:44:07.842Z,7.03
2022-09-27T20:46:36.518Z,6.88
2022-09-27T20:49:05.531Z,7.03
2022-09-27T20:51:34.119Z,7.00
2022-09-27T20:54:01.899Z,6.75
2022-09-27T20:56:32.843Z,7.02
2022-09-27T20:59:02.130Z,7.01
2022-09-27T21:01:29.561Z,7.01
2022-09-27T21:03:58.417Z,7.13
2022-09-27T21:06:25.236Z,7.21
2022-09-27T21:08:51.654Z,7.01
2022-09-27T21:11:18.986Z,6.90
2022-09-27T21:13:47.012Z,7.07
2022-09-27T21:16:18.615Z,7.05
2022-09-27T21:18:45.357Z,7.06
2022-09-27T21:21:13.898Z,7.07
2022-09-27T21:23:44.921Z,7.09
2022-09-27T21:26:20.993Z,6.96
2022-09-27T21:28:49.707Z,6.83
2022-09-27T21:31:23.059Z,7.00
2022-09-27T21:33:54.966Z,7.01
2022-09-27T21:36:23.571Z,7.06
2022-09-27T21:38:50.823Z,6.91
2022-09-27T21:41:17.748Z,7.14
2022-09-27T21:43:45.898Z,6.87
2022-09-27T21:46:17.789Z,7.03
2022-09-27T21:48:46.947Z,6.90
2022-09-27T21:51:19.760Z,6.87
2022-09-27T21:54:03.182Z,6.81
2022-09-27T21:56:32.391Z,6.96
2022-09-27T21:58:59.033Z,6.52
2022-09-27T22:01:30.569Z,6.87
2022-09-27T22:03:58.002Z,7.19
2022-09-27T22:06:36.514Z,7.07
2022-09-27T22:09:08.271Z,6.86
2022-09-27T22:11:38.446Z,6.69
2022-09-27T22:14:09.411Z,6.67
2022-09-27T22:16:35.875Z,6.71
2022-09-27T22:19:02.645Z,6.97
2022-09-27T22:21:32.206Z,7.16
2022-09-27T22:24:08.268Z,7.13
2022-09-27T22:26:37.536Z,7.01
2022-09-27T22:29:05.551Z,7.12
2022-09-27T22:31:32.099Z,6.89
2022-09-27T22:34:01.232Z,7.28
2022-09-27T22:36:28.609Z,7.23
2022-09-27T22:38:55.336Z,7.01
2022-09-27T22:41:22.694Z,7.15
2022-09-27T22:43:49.392Z,7.17
2022-09-27T22:46:15.858Z,7.00
2022-09-27T22:48:42.764Z,6.74
2022-09-27T22:51:09.719Z,6.82
2022-09-27T22:53:37.654Z,6.85
2022-09-27T22:56:16.101Z,6.76
2022-09-27T22:58:43.964Z,6.69
2022-09-27T23:01:19.529Z,6.62
2022-09-27T23:03:49.873Z,6.62
2022-09-27T23:06:18.650Z,6.78
2022-09-27T23:08:45.094Z,6.56
2022-09-27T23:11:13.961Z,6.47
2022-09-27T23:13:42.586Z,6.49
2022-09-27T23:16:11.409Z,6.49
2022-09-27T23:18:38.196Z,6.31
2022-09-27T23:21:09.064Z,6.53
2022-09-27T23:23:37.500Z,6.57
2022-09-27T23:26:06.374Z,6.64
2022-09-27T23:28:33.737Z,6.85
2022-09-27T23:31:08.625Z,6.71
2022-09-27T23:33:40.351Z,6.62
2022-09-27T23:36:12.444Z,6.45
2022-09-27T23:38:40.916Z,6.54
2022-09-27T23:41:08.238Z,6.66
2022-09-27T23:43:36.090Z,6.99
2022-09-27T23:46:06.098Z,6.93
2022-09-27T23:48:34.550Z,6.87
2022-09-27T23:51:01.867Z,7.31
2022-09-27T23:53:28.603Z,7.04
2022-09-27T23:56:05.332Z,7.07
2022-09-27T23:58:37.212Z,6.79
